Time;durP1;ratioP1;P1;durP2;ratioP2;P2;SDS_P1;SDS_P2;PMS_P1;PMS_P2;Temp;Humidity;BMP_temperature;BMP_pressure;BME280_temperature;BME280_humidity;BME280_pressure;Samples;Min_cycle;Max_cycle;Signal;HPM_P1;HPM_P2
2024/01/13 00:06:17;;;;;;;0.00;0.00;;;;;;;1.58;86.00;101810.81;15672866;28;20037;-49
2024/01/13 00:13:51;;;;;;;0.47;0.47;;;;;;;1.59;85.67;101802.78;15653507;28;20033;-47
2024/01/13 00:21:26;;;;;;;6.28;1.35;;;;;;;1.31;86.11;101803.34;15668910;28;20102;-47
2024/01/13 00:29:00;;;;;;;0.10;0.10;;;;;;;1.49;84.66;101791.25;15682485;22;20041;-51
2024/01/13 00:36:35;;;;;;;0.10;0.10;;;;;;;1.44;85.75;101793.41;15672768;28;20041;-52
2024/01/13 00:44:08;;;;;;;0.00;0.00;;;;;;;1.40;85.46;101790.22;15671583;28;20419;-52
2024/01/13 00:51:44;;;;;;;0.50;0.50;;;;;;;1.45;85.60;101789.84;15668525;28;20052;-48
2024/01/13 00:59:17;;;;;;;0.00;0.00;;;;;;;1.64;84.72;101784.72;15671738;28;20045;-51
2024/01/13 01:06:52;;;;;;;;;;;;;;;1.47;85.94;101770.22;15667344;28;20512;-50
2024/01/13 01:14:26;;;;;;;0.00;0.00;;;;;;;1.68;84.94;101766.75;15669844;28;19978;-53
2024/01/13 01:22:01;;;;;;;0.00;0.00;;;;;;;1.55;85.69;101761.66;15679238;28;20365;-50
2024/01/13 01:29:34;;;;;;;1.08;0.45;;;;;;;1.67;86.24;101752.69;15684086;28;20064;-51
2024/01/13 01:37:09;;;;;;;0.00;0.00;;;;;;;1.80;85.05;101747.22;15671119;28;20112;-52
2024/01/13 01:44:43;;;;;;;1.80;1.65;;;;;;;1.82;85.32;101745.28;15675451;28;20084;-50
2024/01/13 01:52:17;;;;;;;1.00;0.77;;;;;;;1.85;85.25;101737.06;15681290;28;20043;-48
2024/01/13 01:59:51;;;;;;;0.00;0.00;;;;;;;1.72;85.60;101723.19;15680977;28;20045;-48
2024/01/13 02:07:27;;;;;;;0.35;0.35;;;;;;;1.60;84.91;101714.47;15680783;28;20370;-51
2024/01/13 02:15:01;;;;;;;0.30;0.20;;;;;;;2.02;85.37;101715.31;15682464;28;20041;-50
2024/01/13 02:22:36;;;;;;;0.28;0.28;;;;;;;1.70;87.12;101709.25;15677974;28;20048;-49
2024/01/13 02:30:10;;;;;;;0.15;0.15;;;;;;;1.44;87.45;101679.66;15676507;28;20208;-50
2024/01/13 02:37:45;;;;;;;0.00;0.00;;;;;;;1.89;86.67;101674.13;15678646;28;20048;-48
2024/01/13 02:45:19;;;;;;;0.00;0.00;;;;;;;1.38;88.19;101654.56;15664539;28;20037;-48
2024/01/13 02:52:53;;;;;;;;;;;;;;;1.47;89.56;101632.63;15661703;28;20198;-48
2024/01/13 03:00:27;;;;;;;0.00;0.00;;;;;;;1.49;87.98;101627.22;15662409;28;20137;-51
2024/01/13 03:08:03;;;;;;;0.28;0.28;;;;;;;1.82;86.62;101612.94;15672185;28;20103;-53
2024/01/13 03:15:40;;;;;;;0.03;0.03;;;;;;;1.62;88.43;101611.97;15677415;28;20323;-50
2024/01/13 03:23:18;;;;;;;0.00;0.00;;;;;;;1.47;88.47;101605.34;15677337;28;20231;-50
2024/01/13 03:30:53;;;;;;;0.00;0.00;;;;;;;1.49;88.69;101598.09;15659256;28;20454;-48
2024/01/13 03:38:28;;;;;;;0.10;0.10;;;;;;;1.50;88.68;101586.59;15673898;28;20041;-54
2024/01/13 03:46:03;;;;;;;0.25;0.25;;;;;;;1.53;88.34;101581.00;15659057;28;20477;-53
2024/01/13 03:53:38;;;;;;;8.23;0.50;;;;;;;1.44;88.41;101561.47;15675918;28;20049;-50
2024/01/13 04:01:12;;;;;;;0.47;0.47;;;;;;;1.31;89.70;101557.38;15674624;28;20045;-54
2024/01/13 04:08:47;;;;;;;0.28;0.20;;;;;;;1.57;88.41;101561.25;15671521;28;20063;-50
2024/01/13 04:16:23;;;;;;;0.00;0.00;;;;;;;1.52;88.07;101559.00;15672998;28;20041;-52
2024/01/13 04:23:58;;;;;;;0.10;0.10;;;;;;;1.45;88.18;101560.53;15673321;28;20040;-50
2024/01/13 04:31:35;;;;;;;0.03;0.03;;;;;;;1.50;88.79;101539.78;15655816;28;20041;-50
2024/01/13 04:39:12;;;;;;;0.03;0.03;;;;;;;1.22;88.95;101537.84;15672553;28;20045;-51
2024/01/13 04:46:49;;;;;;;0.20;0.20;;;;;;;1.26;88.85;101542.72;15650834;28;20462;-52
2024/01/13 04:54:24;;;;;;;0.20;0.20;;;;;;;1.41;89.35;101534.47;15650866;28;20124;-48
2024/01/13 05:01:57;;;;;;;0.00;0.00;;;;;;;1.39;88.64;101510.75;15669397;28;20081;-52
2024/01/13 05:09:32;;;;;;;0.00;0.00;;;;;;;1.70;87.30;101513.41;15670036;28;20049;-54
2024/01/13 05:17:06;;;;;;;0.00;0.00;;;;;;;1.20;89.53;101498.28;15668993;28;20364;-48
2024/01/13 05:24:42;;;;;;;;;;;;;;;1.49;89.53;101498.44;15661058;28;20079;-49
2024/01/13 05:32:15;;;;;;;0.05;0.05;;;;;;;1.34;89.14;101496.25;15672501;28;19982;-50
2024/01/13 05:39:51;;;;;;;0.47;0.45;;;;;;;1.24;88.84;101489.13;15654539;28;20047;-52
2024/01/13 05:47:26;;;;;;;0.00;0.00;;;;;;;1.49;89.05;101495.81;15668343;28;20420;-52
2024/01/13 05:55:02;;;;;;;0.00;0.00;;;;;;;1.42;89.73;101484.06;15671856;28;20565;-49
2024/01/13 06:02:37;;;;;;;0.10;0.10;;;;;;;1.34;89.61;101477.75;15639924;28;20548;-48
2024/01/13 06:10:13;;;;;;;0.00;0.00;;;;;;;1.15;90.08;101455.53;15666057;28;20222;-52
2024/01/13 06:17:50;;;;;;;1.52;0.55;;;;;;;1.16;90.27;101465.13;15684862;28;20060;-51
2024/01/13 06:25:25;;;;;;;0.10;0.10;;;;;;;1.39;88.52;101451.75;15697577;22;20021;-45
2024/01/13 06:32:59;;;;;;;0.03;0.03;;;;;;;1.15;90.00;101444.13;15655964;28;20068;-51
2024/01/13 06:40:34;;;;;;;0.40;0.25;;;;;;;1.28;89.52;101440.28;15677749;28;20117;-47
2024/01/13 06:48:08;;;;;;;0.00;0.00;;;;;;;1.22;89.30;101419.66;15669026;28;20120;-47
2024/01/13 06:55:42;;;;;;;;;;;;;;;1.20;89.32;101415.47;15673822;28;20063;-51
2024/01/13 07:03:16;;;;;;;0.00;0.00;;;;;;;1.00;89.93;101412.75;15659682;28;20381;-48
2024/01/13 07:10:54;;;;;;;0.03;0.03;;;;;;;1.05;89.58;101400.94;15676617;28;20404;-49
2024/01/13 07:18:28;;;;;;;0.00;0.00;;;;;;;1.18;88.83;101397.09;15670186;28;20059;-50
2024/01/13 07:26:05;;;;;;;0.10;0.10;;;;;;;1.36;88.77;101385.91;15675961;28;20224;-50
2024/01/13 07:33:39;;;;;;;0.00;0.00;;;;;;;1.28;89.68;101383.91;15677197;28;20079;-50
2024/01/13 07:41:13;;;;;;;;;;;;;;;1.25;88.82;101363.03;15650799;28;20037;-52
2024/01/13 07:48:47;;;;;;;0.00;0.00;;;;;;;1.28;88.95;101355.66;15673693;28;19956;-49
2024/01/13 07:56:23;;;;;;;0.20;0.20;;;;;;;1.20;89.37;101350.19;15672771;28;20510;-49
2024/01/13 08:03:57;;;;;;;0.00;0.00;;;;;;;1.32;88.97;101350.13;15650775;28;20087;-50
2024/01/13 08:11:36;;;;;;;0.00;0.00;;;;;;;1.40;88.19;101343.19;15674692;28;20041;-50
2024/01/13 08:19:13;;;;;;;0.00;0.00;;;;;;;1.35;87.95;101329.50;15675687;28;20265;-48
2024/01/13 08:26:49;;;;;;;0.00;0.00;;;;;;;1.13;89.08;101324.44;15672845;28;20493;-53
2024/01/13 08:34:23;;;;;;;0.00;0.00;;;;;;;1.40;88.42;101329.94;15645714;28;20045;-49
2024/01/13 08:41:59;;;;;;;0.00;0.00;;;;;;;1.92;86.93;101317.31;15655491;28;20118;-49
2024/01/13 08:49:33;;;;;;;0.00;0.00;;;;;;;1.77;86.90;101306.31;15668214;28;20186;-49
2024/01/13 08:57:08;;;;;;;;;;;;;;;1.63;86.89;101322.63;15660426;28;20041;-49
2024/01/13 09:04:42;;;;;;;0.00;0.00;;;;;;;1.64;87.25;101289.06;15631639;28;19921;-49
2024/01/13 09:12:16;;;;;;;;;;;;;;;1.84;86.95;101280.13;15652741;28;20132;-51
2024/01/13 09:19:50;;;;;;;0.00;0.00;;;;;;;2.24;85.86;101257.91;15632500;28;19964;-49
2024/01/13 09:27:25;;;;;;;0.00;0.00;;;;;;;2.08;85.63;101253.19;15655120;28;20060;-50
2024/01/13 09:34:59;;;;;;;0.00;0.00;;;;;;;1.97;85.60;101266.59;15671633;28;20049;-49
2024/01/13 09:42:44;;;;;;;0.00;0.00;;;;;;;2.31;85.08;101248.41;15679585;28;20041;-52
2024/01/13 09:50:18;;;;;;;0.00;0.00;;;;;;;1.97;85.22;101253.38;15657509;28;20148;-50
2024/01/13 09:57:53;;;;;;;;;;;;;;;1.82;86.28;101245.03;15682783;28;20073;-49
2024/01/13 10:05:29;;;;;;;0.40;0.40;;;;;;;2.29;84.69;101213.28;15681217;28;20560;-48
2024/01/13 10:13:06;;;;;;;0.00;0.00;;;;;;;2.41;85.24;101212.13;15680424;28;20037;-47
2024/01/13 10:20:40;;;;;;;1.45;0.57;;;;;;;2.23;85.15;101205.91;15678345;28;20075;-51
2024/01/13 10:28:16;;;;;;;1.55;1.45;;;;;;;2.12;84.86;101211.38;15682507;28;20383;-51
2024/01/13 10:35:49;;;;;;;0.00;0.00;;;;;;;1.77;85.90;101212.84;15682259;28;20041;-50
2024/01/13 10:43:27;;;;;;;0.00;0.00;;;;;;;1.72;86.20;101209.78;15678091;28;20041;-49
2024/01/13 10:51:01;;;;;;;0.00;0.00;;;;;;;2.02;85.96;101206.13;15656690;28;20040;-50
2024/01/13 10:58:36;;;;;;;0.68;0.68;;;;;;;1.63;87.10;101198.25;15658059;28;20124;-50
2024/01/13 11:06:10;;;;;;;0.60;0.60;;;;;;;1.71;86.38;101158.66;15668403;28;20037;-48
2024/01/13 11:13:50;;;;;;;0.25;0.20;;;;;;;1.98;86.19;101131.44;15666856;28;20072;-50
2024/01/13 11:21:32;;;;;;;0.08;0.08;;;;;;;2.10;85.43;101115.34;15649155;28;20037;-49
2024/01/13 11:29:17;;;;;;;0.00;0.00;;;;;;;2.00;85.11;101104.81;15667007;28;20053;-51
2024/01/13 11:36:52;;;;;;;0.28;0.20;;;;;;;1.79;85.81;101079.41;15643872;28;20053;-50
2024/01/13 11:44:42;;;;;;;0.00;0.00;;;;;;;1.85;86.25;101083.28;15677149;28;20068;-50
2024/01/13 11:52:31;;;;;;;0.10;0.10;;;;;;;2.02;85.08;101061.34;15669904;28;20037;-50
2024/01/13 12:00:09;;;;;;;0.00;0.00;;;;;;;1.76;86.88;101032.03;15646268;28;20037;-50
2024/01/13 12:07:43;;;;;;;0.20;0.20;;;;;;;1.84;87.62;101012.81;15647170;28;20128;-50
2024/01/13 12:15:20;;;;;;;;;;;;;;;2.14;86.70;101000.22;15673742;28;20045;-49
2024/01/13 12:22:54;;;;;;;0.00;0.00;;;;;;;1.95;86.80;100988.75;15673919;28;19956;-48
2024/01/13 12:30:29;;;;;;;0.00;0.00;;;;;;;2.39;85.36;100966.91;15673064;28;20049;-47
2024/01/13 12:38:04;;;;;;;0.00;0.00;;;;;;;2.02;85.51;100942.19;15672446;28;20052;-48
2024/01/13 12:45:39;;;;;;;0.55;0.35;;;;;;;1.92;86.49;100908.84;15666188;28;20037;-46
2024/01/13 12:53:25;;;;;;;0.10;0.10;;;;;;;2.00;85.75;100898.31;15653320;28;20056;-48
2024/01/13 13:01:00;;;;;;;0.00;0.00;;;;;;;1.97;86.01;100880.94;15648080;28;20029;-49
2024/01/13 13:08:37;;;;;;;0.00;0.00;;;;;;;2.11;85.31;100886.69;15670401;28;20053;-47
2024/01/13 13:16:12;;;;;;;0.00;0.00;;;;;;;1.94;86.08;100868.00;15661666;28;20029;-46
2024/01/13 13:23:46;;;;;;;0.03;0.03;;;;;;;1.82;87.05;100861.28;15664920;28;20048;-46
2024/01/13 13:31:20;;;;;;;0.08;0.08;;;;;;;1.91;86.31;100844.50;15682809;28;20091;-45
2024/01/13 13:38:54;;;;;;;0.00;0.00;;;;;;;1.93;86.33;100821.34;15683439;28;20052;-47
2024/01/13 13:46:28;;;;;;;;;;;;;;;2.06;86.84;100815.66;15680077;28;20052;-51
2024/01/13 13:54:02;;;;;;;0.00;0.00;;;;;;;1.87;87.58;100813.19;15667984;28;19925;-46
2024/01/13 14:01:37;;;;;;;0.00;0.00;;;;;;;1.89;88.28;100803.25;15680921;28;20147;-45
2024/01/13 14:09:10;;;;;;;0.30;0.30;;;;;;;1.98;87.45;100805.81;15682224;28;20087;-45
2024/01/13 14:16:46;;;;;;;0.00;0.00;;;;;;;1.58;88.47;100805.44;15682417;28;20049;-47
2024/01/13 14:24:19;;;;;;;0.00;0.00;;;;;;;1.61;88.85;100791.94;15678824;28;20545;-45
2024/01/13 14:31:54;;;;;;;0.00;0.00;;;;;;;1.65;89.26;100772.94;15680859;28;20420;-46
2024/01/13 14:39:27;;;;;;;1.27;0.88;;;;;;;1.68;89.67;100748.00;15682971;28;20057;-45
2024/01/13 14:47:05;;;;;;;0.00;0.00;;;;;;;1.62;90.30;100730.09;15678365;28;20041;-49
2024/01/13 14:54:38;;;;;;;0.00;0.00;;;;;;;1.71;89.35;100721.25;15681311;28;20487;-50
2024/01/13 15:02:17;;;;;;;0.45;0.28;;;;;;;1.79;89.07;100697.50;15680185;28;20383;-46
2024/01/13 15:09:51;;;;;;;0.05;0.05;;;;;;;1.93;88.74;100683.69;15679299;28;20044;-50
2024/01/13 15:17:27;;;;;;;0.08;0.08;;;;;;;1.81;88.46;100692.03;15677565;28;20119;-51
2024/01/13 15:25:00;;;;;;;0.20;0.20;;;;;;;2.02;87.63;100687.22;15677364;28;20064;-50
2024/01/13 15:32:39;;;;;;;0.00;0.00;;;;;;;1.73;88.72;100684.88;15678504;28;20440;-48
2024/01/13 15:40:13;;;;;;;2.10;1.23;;;;;;;1.92;88.64;100682.03;15677158;28;20395;-46
2024/01/13 15:47:48;;;;;;;0.00;0.00;;;;;;;1.72;89.46;100670.81;15666483;28;20098;-49
2024/01/13 15:55:22;;;;;;;5.82;1.77;;;;;;;1.82;89.03;100656.66;15658253;28;20033;-46
2024/01/13 16:02:57;;;;;;;0.45;0.45;;;;;;;1.79;89.18;100644.56;15656306;28;20559;-49
2024/01/13 16:10:30;;;;;;;0.05;0.05;;;;;;;1.99;88.68;100647.81;15656039;28;20136;-48
2024/01/13 16:18:06;;;;;;;0.32;0.32;;;;;;;1.90;88.75;100643.47;15652635;28;20497;-46
2024/01/13 16:25:41;;;;;;;0.20;0.20;;;;;;;1.97;88.68;100629.47;15648961;28;20049;-50
2024/01/13 16:33:16;;;;;;;0.10;0.10;;;;;;;2.04;88.28;100619.06;15636591;28;20132;-49
2024/01/13 16:40:49;;;;;;;0.00;0.00;;;;;;;2.03;88.41;100590.94;15660178;28;20068;-46
2024/01/13 16:48:24;;;;;;;0.20;0.20;;;;;;;2.04;88.82;100605.81;15650154;28;20071;-48
2024/01/13 16:55:57;;;;;;;0.20;0.20;;;;;;;1.87;89.63;100599.63;15655060;28;20037;-50
2024/01/13 17:03:33;;;;;;;0.00;0.00;;;;;;;1.96;89.07;100595.22;15653946;28;20106;-48
2024/01/13 17:11:07;;;;;;;0.45;0.45;;;;;;;2.07;88.49;100594.09;15669094;28;20055;-49
2024/01/13 17:18:42;;;;;;;0.05;0.05;;;;;;;2.06;88.93;100566.81;15669227;28;20502;-51
2024/01/13 17:26:16;;;;;;;2.35;1.52;;;;;;;2.17;88.63;100573.63;15672144;28;20042;-47
2024/01/13 17:33:51;;;;;;;0.05;0.05;;;;;;;2.04;88.67;100572.25;15672576;28;20544;-50
2024/01/13 17:41:25;;;;;;;0.65;0.65;;;;;;;2.13;88.65;100564.34;15661355;28;20106;-49
2024/01/13 17:49:02;;;;;;;0.30;0.30;;;;;;;2.04;88.85;100574.06;15666366;28;20394;-46
2024/01/13 17:56:38;;;;;;;0.05;0.05;;;;;;;2.00;88.67;100562.94;15665746;28;20557;-46
2024/01/13 18:04:12;;;;;;;;;;;;;;;2.23;88.29;100554.44;15662314;28;20410;-44
2024/01/13 18:11:46;;;;;;;0.25;0.25;;;;;;;2.36;87.59;100530.16;15664292;28;19927;-52
2024/01/13 18:19:21;;;;;;;;;;;;;;;2.21;88.22;100532.59;15680732;28;20045;-47
2024/01/13 18:26:55;;;;;;;1.08;1.05;;;;;;;2.36;87.67;100536.28;15698462;22;19955;-50
2024/01/13 18:34:29;;;;;;;0.00;0.00;;;;;;;2.22;88.17;100523.66;15715436;28;20140;-48
2024/01/13 18:42:05;;;;;;;0.00;0.00;;;;;;;2.46;87.04;100518.41;15657112;28;20115;-44
2024/01/13 18:49:40;;;;;;;2.45;0.95;;;;;;;2.35;87.33;100509.97;15639985;28;20045;-47
2024/01/13 18:57:13;;;;;;;0.10;0.10;;;;;;;2.43;87.04;100502.03;15656150;28;20045;-44
2024/01/13 19:04:48;;;;;;;0.00;0.00;;;;;;;2.45;86.83;100497.38;15654269;28;20095;-46
2024/01/13 19:12:23;;;;;;;0.00;0.00;;;;;;;2.76;86.13;100492.28;15656925;28;20139;-47
2024/01/13 19:19:57;;;;;;;;;;;;;;;2.47;86.45;100480.34;15663426;28;20049;-48
2024/01/13 19:27:34;;;;;;;0.00;0.00;;;;;;;2.30;88.06;100452.19;15648457;28;20467;-45
2024/01/13 19:35:10;;;;;;;0.00;0.00;;;;;;;2.48;87.75;100450.22;15668401;28;20059;-45
2024/01/13 19:42:45;;;;;;;0.93;0.55;;;;;;;2.18;88.81;100453.47;15665104;28;20103;-48
2024/01/13 19:50:19;;;;;;;;;;;;;;;2.38;87.88;100438.09;15663405;28;20132;-45
2024/01/13 19:57:53;;;;;;;0.00;0.00;;;;;;;2.46;86.82;100420.41;15670577;28;20019;-49
2024/01/13 20:05:27;;;;;;;;;;;;;;;2.35;87.47;100422.56;15667199;28;20077;-47
2024/01/13 20:13:04;;;;;;;0.00;0.00;;;;;;;2.16;88.51;100410.47;15663638;28;19921;-48
2024/01/13 20:20:42;;;;;;;0.20;0.20;;;;;;;2.08;88.89;100407.78;15632744;28;20077;-53
2024/01/13 20:28:16;;;;;;;0.60;0.60;;;;;;;2.29;88.38;100419.59;15651393;28;20041;-44
2024/01/13 20:35:51;;;;;;;0.20;0.20;;;;;;;2.18;89.05;100400.53;15628562;28;20041;-48
2024/01/13 20:43:25;;;;;;;0.00;0.00;;;;;;;2.24;88.30;100399.88;15642555;28;20096;-53
2024/01/13 20:51:00;;;;;;;0.13;0.13;;;;;;;2.31;87.78;100374.38;15650572;28;20144;-47
2024/01/13 20:58:33;;;;;;;0.03;0.03;;;;;;;2.44;87.11;100377.38;15657973;28;20045;-47
2024/01/13 21:06:08;;;;;;;0.25;0.25;;;;;;;2.29;87.64;100347.25;15619456;28;20145;-48
2024/01/13 21:13:43;;;;;;;0.40;0.40;;;;;;;2.28;88.37;100343.78;15661889;28;20131;-51
2024/01/13 21:21:19;;;;;;;3.28;1.67;;;;;;;2.23;87.78;100324.06;15645386;28;20110;-46
2024/01/13 21:28:53;;;;;;;0.20;0.20;;;;;;;2.14;87.91;100320.59;15617462;28;20037;-46
2024/01/13 21:36:29;;;;;;;0.00;0.00;;;;;;;2.18;87.64;100313.16;15648852;28;20069;-47
2024/01/13 21:44:04;;;;;;;0.75;0.55;;;;;;;2.42;87.00;100301.69;15637744;28;20124;-45
2024/01/13 21:51:39;;;;;;;0.15;0.15;;;;;;;2.19;87.90;100289.19;15638348;28;20296;-46
2024/01/13 21:59:13;;;;;;;1.27;1.13;;;;;;;2.52;86.97;100279.34;15636113;28;20061;-46
2024/01/13 22:06:49;;;;;;;0.20;0.20;;;;;;;2.30;87.43;100262.34;15658718;28;20136;-47
2024/01/13 22:14:25;;;;;;;0.20;0.20;;;;;;;2.22;87.45;100243.81;15656586;28;20484;-45
2024/01/13 22:22:00;;;;;;;0.20;0.20;;;;;;;2.39;87.29;100259.69;15664754;28;20052;-44
2024/01/13 22:29:34;;;;;;;0.00;0.00;;;;;;;2.13;88.24;100242.16;15648918;28;20072;-49
2024/01/13 22:37:09;;;;;;;1.10;0.95;;;;;;;2.14;88.64;100237.69;15649299;28;20045;-48
2024/01/13 22:44:42;;;;;;;0.00;0.00;;;;;;;2.02;89.86;100227.47;15643448;28;20051;-44
2024/01/13 22:52:17;;;;;;;0.03;0.03;;;;;;;2.16;88.47;100228.59;15649308;28;20477;-45
2024/01/13 22:59:51;;;;;;;0.00;0.00;;;;;;;2.40;87.72;100216.31;15664893;28;20076;-44
2024/01/13 23:07:26;;;;;;;0.20;0.20;;;;;;;2.18;88.66;100213.38;15667517;28;20060;-46
2024/01/13 23:15:04;;;;;;;0.05;0.05;;;;;;;2.35;87.60;100195.63;15647918;28;20060;-47
2024/01/13 23:22:39;;;;;;;0.20;0.20;;;;;;;2.36;88.28;100191.97;15643779;28;20431;-45
2024/01/13 23:30:15;;;;;;;0.10;0.10;;;;;;;2.45;87.64;100185.66;15664485;28;20044;-51
2024/01/13 23:37:49;;;;;;;0.00;0.00;;;;;;;2.22;88.85;100174.16;15641875;28;20046;-45
2024/01/13 23:45:23;;;;;;;0.55;0.55;;;;;;;2.31;89.11;100167.81;15652877;28;20041;-49
2024/01/13 23:52:58;;;;;;;1.38;1.27;;;;;;;2.38;88.62;100160.00;15643793;28;20045;-46
